Terminal Aerodrome Forecast
Issued by NWS

Home | Current Version | Previous Version | Text Only | Print | Product List | Glossary On
Versions: 1 2 3 4 5 6 7 8 9 10 11 12
000
FTUS42 TJSJ 031730
TAFJBQ
TAF
TJBQ 031730Z 0318/0418 08020KT P6SM SCT025
     FM032300 10012KT P6SM FEW030 SCT060
     FM041400 08021KT P6SM SCT250
      AMD NOT SKED 0402/0411=

USA.gov is the U.S. government's official web portal to all federal, state and local government web resources and services.